createdAt,value
2023-05-24T00:00:11.383Z,19.11
2023-05-24T00:02:42.148Z,19.07
2023-05-24T00:05:11.635Z,19.06
2023-05-24T00:07:41.704Z,19.09
2023-05-24T00:10:12.027Z,19.07
2023-05-24T00:12:40.780Z,19.06
2023-05-24T00:15:10.607Z,19.04
2023-05-24T00:17:41.542Z,19.05
2023-05-24T00:20:14.420Z,19.02
2023-05-24T00:22:44.784Z,19.04
2023-05-24T00:25:13.505Z,19.04
2023-05-24T00:27:42.356Z,19.01
2023-05-24T00:30:11.495Z,19.02
2023-05-24T00:32:40.351Z,19.00
2023-05-24T00:35:10.106Z,19.03
2023-05-24T00:37:42.145Z,19.01
2023-05-24T00:40:13.603Z,18.96
2023-05-24T00:42:42.607Z,18.96
2023-05-24T00:45:12.211Z,18.98
2023-05-24T00:47:41.981Z,19.02
2023-05-24T00:50:18.637Z,18.95
2023-05-24T00:52:51.420Z,18.94
2023-05-24T00:55:22.235Z,18.94
2023-05-24T00:57:52.730Z,18.94
2023-05-24T01:00:21.972Z,18.93
2023-05-24T01:02:52.374Z,18.93
2023-05-24T01:05:21.720Z,18.91
2023-05-24T01:08:00.185Z,18.91
2023-05-24T01:10:36.650Z,18.88
2023-05-24T01:13:11.374Z,18.90
2023-05-24T01:15:49.065Z,18.88
2023-05-24T01:18:26.312Z,18.86
2023-05-24T01:21:07.850Z,18.95
2023-05-24T01:23:48.456Z,18.93
2023-05-24T01:26:32.266Z,18.86
2023-05-24T01:29:03.704Z,18.86
2023-05-24T01:31:32.607Z,18.84
2023-05-24T01:34:02.230Z,18.80
2023-05-24T01:36:30.942Z,18.81
2023-05-24T01:38:59.918Z,18.79
2023-05-24T01:41:39.018Z,18.77
2023-05-24T01:44:20.467Z,18.76
2023-05-24T01:46:55.194Z,18.75
2023-05-24T01:49:28.623Z,18.76
2023-05-24T01:52:03.075Z,18.77
2023-05-24T01:54:38.502Z,18.77
2023-05-24T01:57:10.292Z,18.75
2023-05-24T01:59:43.254Z,18.73
2023-05-24T02:02:12.732Z,18.72
2023-05-24T02:04:42.304Z,18.71
2023-05-24T02:07:11.050Z,18.70
2023-05-24T02:09:39.711Z,18.71
2023-05-24T02:12:09.808Z,18.70
2023-05-24T02:14:39.294Z,18.68
2023-05-24T02:17:09.678Z,18.67
2023-05-24T02:19:38.507Z,18.67
2023-05-24T02:22:08.576Z,18.66
2023-05-24T02:24:40.458Z,18.65
2023-05-24T02:27:09.443Z,18.63
2023-05-24T02:29:38.573Z,18.64
2023-05-24T02:32:09.229Z,18.68
2023-05-24T02:34:37.960Z,18.60
2023-05-24T02:37:06.963Z,18.59
2023-05-24T02:39:35.740Z,18.64
2023-05-24T02:42:06.016Z,18.60
2023-05-24T02:44:34.744Z,18.60
2023-05-24T02:47:03.607Z,18.57
2023-05-24T02:49:33.763Z,18.56
2023-05-24T02:52:02.466Z,18.56
2023-05-24T02:54:31.921Z,18.54
2023-05-24T02:57:01.690Z,18.55
2023-05-24T02:59:31.297Z,18.52
2023-05-24T03:02:00.380Z,18.51
2023-05-24T03:04:29.194Z,18.50
2023-05-24T03:06:59.642Z,18.50
2023-05-24T03:09:28.745Z,18.48
2023-05-24T03:11:57.453Z,18.49
2023-05-24T03:14:26.151Z,18.47
2023-05-24T03:16:54.934Z,18.48
2023-05-24T03:19:24.491Z,18.47
2023-05-24T03:21:53.627Z,18.44
2023-05-24T03:24:23.685Z,18.45
2023-05-24T03:26:52.369Z,18.46
2023-05-24T03:29:21.100Z,18.43
2023-05-24T03:31:50.556Z,18.44
2023-05-24T03:34:19.598Z,18.42
2023-05-24T03:36:48.362Z,18.42
2023-05-24T03:39:17.354Z,18.40
2023-05-24T03:42:06.489Z,18.41
2023-05-24T03:44:35.517Z,18.39
2023-05-24T03:47:04.336Z,18.42
2023-05-24T03:49:33.473Z,18.39
2023-05-24T03:52:03.361Z,18.42
2023-05-24T03:54:32.335Z,18.39
2023-05-24T03:57:01.795Z,18.39
2023-05-24T03:59:32.408Z,18.38
2023-05-24T04:02:01.118Z,18.39
2023-05-24T04:04:30.234Z,18.37
2023-05-24T04:06:59.463Z,18.37
2023-05-24T04:09:28.181Z,18.36
2023-05-24T04:11:57.737Z,18.37
2023-05-24T04:14:26.470Z,18.49
2023-05-24T04:16:57.709Z,18.45
2023-05-24T04:19:26.506Z,18.41
2023-05-24T04:21:55.167Z,18.38
2023-05-24T04:24:23.821Z,18.36
2023-05-24T04:26:52.490Z,18.37
2023-05-24T04:29:21.278Z,18.36
2023-05-24T04:31:50.145Z,18.35
2023-05-24T04:34:22.379Z,18.39
2023-05-24T04:36:53.211Z,18.38
2023-05-24T04:39:21.998Z,18.37
2023-05-24T04:41:53.227Z,18.39
2023-05-24T04:44:22.039Z,18.39
2023-05-24T04:46:50.944Z,18.40
2023-05-24T04:49:20.990Z,18.42
2023-05-24T04:51:49.888Z,18.41
2023-05-24T04:54:18.531Z,18.42
2023-05-24T04:56:47.194Z,18.45
2023-05-24T04:59:15.941Z,18.46
2023-05-24T05:01:44.920Z,18.46
2023-05-24T05:04:13.748Z,18.44
2023-05-24T05:06:44.902Z,18.45
2023-05-24T05:09:15.075Z,18.44
2023-05-24T05:11:43.882Z,18.45
2023-05-24T05:14:12.734Z,18.44
2023-05-24T05:16:42.344Z,18.44
2023-05-24T05:19:11.107Z,18.48
2023-05-24T05:21:40.052Z,18.48
2023-05-24T05:24:10.314Z,18.49
2023-05-24T05:26:39.019Z,18.48
2023-05-24T05:29:07.741Z,18.50
2023-05-24T05:31:36.661Z,18.50
2023-05-24T05:34:09.727Z,18.50
2023-05-24T05:36:40.932Z,18.52
2023-05-24T05:39:11.535Z,18.52
2023-05-24T05:41:45.767Z,18.52
2023-05-24T05:44:17.565Z,18.52
2023-05-24T05:46:46.571Z,18.53
2023-05-24T05:49:15.974Z,18.55
2023-05-24T05:51:44.629Z,18.56
2023-05-24T05:54:18.375Z,18.52
2023-05-24T05:56:48.207Z,18.54
2023-05-24T05:59:17.431Z,18.54
2023-05-24T06:01:47.623Z,18.57
2023-05-24T06:04:16.646Z,18.57
2023-05-24T06:06:48.460Z,18.56
2023-05-24T06:09:18.613Z,18.57
2023-05-24T06:11:47.298Z,18.60
2023-05-24T06:14:18.621Z,18.59
2023-05-24T06:16:48.275Z,18.58
2023-05-24T06:19:17.093Z,18.58
2023-05-24T06:21:48.265Z,18.56
2023-05-24T06:24:20.742Z,18.54
2023-05-24T06:26:51.702Z,18.55
2023-05-24T06:29:21.992Z,18.58
2023-05-24T06:31:51.356Z,18.59
2023-05-24T06:34:21.651Z,18.58
2023-05-24T06:36:51.745Z,18.59
2023-05-24T06:39:21.912Z,18.57
2023-05-24T06:41:51.496Z,18.59
2023-05-24T06:44:32.215Z,18.62
2023-05-24T06:47:01.030Z,18.62
2023-05-24T06:49:29.802Z,18.58
2023-05-24T06:52:01.581Z,18.58
2023-05-24T06:54:31.805Z,18.58
2023-05-24T06:57:00.806Z,18.60
2023-05-24T06:59:29.820Z,18.61
2023-05-24T07:02:00.593Z,18.61
2023-05-24T07:04:31.682Z,18.61
2023-05-24T07:07:00.372Z,18.63
2023-05-24T07:09:29.157Z,18.64
2023-05-24T07:11:59.555Z,18.60
2023-05-24T07:14:29.157Z,18.57
2023-05-24T07:17:00.033Z,18.61
2023-05-24T07:19:29.896Z,18.65
2023-05-24T07:21:58.834Z,18.67
2023-05-24T07:24:27.510Z,18.67
2023-05-24T07:26:57.754Z,18.68
2023-05-24T07:29:27.904Z,18.68
2023-05-24T07:31:58.201Z,18.71
2023-05-24T07:34:30.214Z,18.71
2023-05-24T07:37:00.788Z,18.74
2023-05-24T07:39:29.707Z,18.74
2023-05-24T07:41:58.608Z,18.78
2023-05-24T07:44:29.593Z,18.78
2023-05-24T07:46:58.285Z,18.80
2023-05-24T07:49:27.226Z,18.82
2023-05-24T07:51:58.055Z,18.82
2023-05-24T07:54:26.711Z,18.85
2023-05-24T07:56:55.444Z,18.86
2023-05-24T07:59:24.280Z,18.84
2023-05-24T08:01:54.441Z,18.87
2023-05-24T08:04:23.986Z,18.86
2023-05-24T08:06:52.775Z,18.89
2023-05-24T08:09:22.689Z,18.89
2023-05-24T08:11:51.542Z,18.91
2023-05-24T08:14:20.222Z,18.92
2023-05-24T08:16:48.953Z,18.93
2023-05-24T08:19:19.482Z,18.92
2023-05-24T08:21:48.299Z,18.93
2023-05-24T08:24:17.185Z,18.95
2023-05-24T08:26:45.862Z,18.96
2023-05-24T08:29:14.602Z,18.95
2023-05-24T08:31:43.435Z,18.95
2023-05-24T08:34:12.891Z,18.97
2023-05-24T08:36:43.997Z,18.97
2023-05-24T08:39:12.769Z,18.99
2023-05-24T08:41:42.379Z,19.00
2023-05-24T08:44:11.863Z,19.00
2023-05-24T08:46:40.770Z,19.00
2023-05-24T08:49:12.798Z,19.01
2023-05-24T08:51:43.014Z,19.01
2023-05-24T08:54:13.872Z,19.02
2023-05-24T08:56:42.897Z,19.02
2023-05-24T08:59:13.615Z,19.03
2023-05-24T09:01:43.174Z,19.04
2023-05-24T09:04:13.177Z,19.03
2023-05-24T09:06:45.891Z,19.05
2023-05-24T09:09:17.025Z,19.05
2023-05-24T09:11:48.658Z,19.06
2023-05-24T09:14:18.015Z,19.07
2023-05-24T09:16:47.373Z,19.06
2023-05-24T09:19:17.320Z,19.07
2023-05-24T09:21:47.878Z,19.06
2023-05-24T09:24:17.238Z,19.07
2023-05-24T09:26:46.605Z,19.09
2023-05-24T09:29:15.420Z,19.13
2023-05-24T09:31:44.292Z,19.14
2023-05-24T09:34:16.683Z,19.16
2023-05-24T09:36:49.675Z,19.19
2023-05-24T09:39:21.783Z,19.23
2023-05-24T09:41:57.387Z,19.21
2023-05-24T09:44:26.892Z,19.23
2023-05-24T09:46:56.211Z,19.25
2023-05-24T09:49:24.930Z,19.22
2023-05-24T09:51:55.287Z,19.24
2023-05-24T09:54:25.962Z,19.22
2023-05-24T09:56:54.654Z,19.21
2023-05-24T09:59:24.009Z,19.20
2023-05-24T10:01:58.478Z,19.17
2023-05-24T10:04:34.043Z,19.18
2023-05-24T10:07:05.277Z,19.19
2023-05-24T10:09:35.044Z,19.20
2023-05-24T10:12:05.604Z,19.19
2023-05-24T10:14:36.313Z,19.18
2023-05-24T10:17:06.352Z,19.19
2023-05-24T10:19:35.245Z,19.21
2023-05-24T10:22:08.960Z,19.19
2023-05-24T10:24:41.873Z,19.19
2023-05-24T10:27:16.178Z,19.18
2023-05-24T10:29:50.151Z,19.19
2023-05-24T10:32:20.368Z,19.17
2023-05-24T10:34:49.684Z,19.15
2023-05-24T10:37:20.043Z,19.17
2023-05-24T10:39:48.777Z,19.17
2023-05-24T10:42:18.219Z,19.14
2023-05-24T10:44:47.300Z,19.15
2023-05-24T10:47:17.210Z,19.16
2023-05-24T10:49:51.512Z,19.16
2023-05-24T10:52:21.786Z,19.15
2023-05-24T10:55:08.203Z,19.14
2023-05-24T10:57:37.317Z,19.13
2023-05-24T11:00:35.775Z,19.15
2023-05-24T11:03:08.996Z,19.17
2023-05-24T11:05:51.163Z,19.18
2023-05-24T11:08:25.922Z,19.18
2023-05-24T11:11:23.365Z,19.17
2023-05-24T11:13:58.795Z,19.15
2023-05-24T11:16:35.846Z,19.15
2023-05-24T11:19:14.229Z,19.16
2023-05-24T11:21:45.675Z,19.18
2023-05-24T11:24:17.741Z,19.18
2023-05-24T11:26:47.186Z,19.17
2023-05-24T11:29:18.305Z,19.17
2023-05-24T11:31:50.786Z,19.16
2023-05-24T11:34:19.793Z,19.15
2023-05-24T11:36:50.134Z,19.12
2023-05-24T11:39:20.750Z,19.11
2023-05-24T11:41:49.692Z,19.11
2023-05-24T11:44:19.675Z,19.14
2023-05-24T11:46:48.844Z,19.12
2023-05-24T11:49:19.187Z,19.16
2023-05-24T11:51:47.961Z,19.16
2023-05-24T11:54:16.924Z,19.16
2023-05-24T11:56:48.742Z,19.16
2023-05-24T11:59:20.212Z,19.16
2023-05-24T12:01:49.010Z,19.16
2023-05-24T12:04:17.780Z,19.18
2023-05-24T12:06:46.585Z,19.17
2023-05-24T12:09:18.213Z,19.16
2023-05-24T12:11:50.722Z,19.17
2023-05-24T12:14:20.968Z,19.16
2023-05-24T12:16:50.365Z,19.19
2023-05-24T12:19:32.548Z,19.17
2023-05-24T12:22:05.285Z,19.15
2023-05-24T12:24:34.349Z,19.14
2023-05-24T12:27:07.892Z,19.11
2023-05-24T12:29:38.871Z,19.09
2023-05-24T12:32:12.601Z,19.10
2023-05-24T12:34:42.730Z,19.11
2023-05-24T12:37:12.495Z,19.12
2023-05-24T12:39:43.887Z,19.12
2023-05-24T12:42:14.696Z,19.10
2023-05-24T12:44:45.261Z,19.11
2023-05-24T12:47:14.155Z,19.13
2023-05-24T12:49:43.730Z,19.14
2023-05-24T12:52:13.313Z,19.15
2023-05-24T12:54:42.178Z,19.15
2023-05-24T12:57:11.071Z,19.15
2023-05-24T12:59:42.923Z,19.14
2023-05-24T13:02:12.055Z,19.16
2023-05-24T13:04:40.810Z,19.20
2023-05-24T13:07:09.633Z,19.22
2023-05-24T13:09:38.298Z,19.23
2023-05-24T13:12:08.273Z,19.23
2023-05-24T13:14:37.961Z,19.17
2023-05-24T13:17:08.300Z,19.14
2023-05-24T13:19:37.087Z,19.13
2023-05-24T13:22:05.793Z,19.11
2023-05-24T13:24:34.499Z,19.10
2023-05-24T13:27:03.536Z,19.10
2023-05-24T13:29:42.262Z,19.09
2023-05-24T13:32:12.890Z,19.07
2023-05-24T13:34:41.933Z,19.06
2023-05-24T13:37:10.708Z,19.04
2023-05-24T13:39:39.638Z,19.03
2023-05-24T13:42:09.224Z,19.01
2023-05-24T13:44:38.597Z,18.99
2023-05-24T13:47:08.741Z,18.97
2023-05-24T13:49:39.105Z,18.96
2023-05-24T13:52:08.012Z,18.95
2023-05-24T13:54:36.699Z,18.94
2023-05-24T13:57:06.804Z,18.92
2023-05-24T13:59:35.461Z,18.91
2023-05-24T14:02:04.413Z,18.89
2023-05-24T14:04:33.201Z,18.88
2023-05-24T14:07:03.879Z,18.87
2023-05-24T14:09:32.679Z,18.86
2023-05-24T14:12:03.610Z,18.86
2023-05-24T14:17:04.086Z,18.85
2023-05-24T14:19:34.120Z,18.83
2023-05-24T14:22:04.281Z,18.81
2023-05-24T14:24:32.925Z,18.80
2023-05-24T14:27:01.666Z,18.81
2023-05-24T14:29:30.381Z,18.80
2023-05-24T14:31:59.105Z,18.79
2023-05-24T14:34:27.997Z,18.80
2023-05-24T14:36:56.648Z,18.78
2023-05-24T14:39:26.780Z,18.78
2023-05-24T14:41:55.753Z,18.78
2023-05-24T14:44:24.454Z,18.78
2023-05-24T14:46:55.264Z,18.77
2023-05-24T14:49:24.648Z,18.77
2023-05-24T14:51:53.347Z,18.77
2023-05-24T14:54:22.650Z,18.77
2023-05-24T14:56:52.732Z,18.75
2023-05-24T14:59:21.455Z,18.75
2023-05-24T15:01:50.304Z,18.74
2023-05-24T15:04:19.128Z,18.73
2023-05-24T15:06:48.016Z,18.71
2023-05-24T15:09:16.956Z,18.71
2023-05-24T15:11:45.627Z,18.71
2023-05-24T15:14:16.283Z,18.70
2023-05-24T15:16:45.162Z,18.72
2023-05-24T15:19:14.373Z,18.71
2023-05-24T15:21:43.160Z,18.72
2023-05-24T15:24:13.429Z,18.72
2023-05-24T15:26:42.230Z,18.71
2023-05-24T15:29:11.397Z,18.71
2023-05-24T15:31:41.750Z,18.70
2023-05-24T15:34:11.013Z,18.70
2023-05-24T15:36:41.259Z,18.69
2023-05-24T15:39:10.086Z,18.69
2023-05-24T15:41:39.092Z,18.68
2023-05-24T15:44:09.144Z,18.66
2023-05-24T15:46:38.028Z,18.65
2023-05-24T15:49:08.360Z,18.63
2023-05-24T15:54:10.358Z,18.62
2023-05-24T15:56:39.086Z,18.61
2023-05-24T15:59:07.877Z,18.63
2023-05-24T16:01:37.162Z,18.62
2023-05-24T16:04:07.523Z,18.63
2023-05-24T16:06:36.682Z,18.64
2023-05-24T16:09:07.195Z,18.65
2023-05-24T16:11:35.884Z,18.63
2023-05-24T16:14:06.080Z,18.62
2023-05-24T16:16:35.109Z,18.61
2023-05-24T16:19:03.796Z,18.58
2023-05-24T16:21:33.849Z,18.61
2023-05-24T16:24:03.484Z,18.71
2023-05-24T16:26:34.772Z,18.67
2023-05-24T16:29:04.126Z,18.62
2023-05-24T16:31:33.201Z,18.60
2023-05-24T16:34:02.576Z,18.60
2023-05-24T16:36:31.930Z,18.87
2023-05-24T16:39:02.127Z,18.72
2023-05-24T16:41:37.462Z,18.79
2023-05-24T16:44:06.268Z,18.89
2023-05-24T16:46:36.721Z,18.95
2023-05-24T16:49:05.989Z,19.05
2023-05-24T16:51:34.608Z,19.09
2023-05-24T16:54:05.322Z,19.13
2023-05-24T16:56:34.036Z,19.15
2023-05-24T16:59:03.113Z,19.18
2023-05-24T17:01:32.145Z,19.20
2023-05-24T17:04:01.198Z,19.24
2023-05-24T17:06:30.113Z,19.27
2023-05-24T17:08:59.399Z,19.27
2023-05-24T17:11:30.039Z,19.32
2023-05-24T17:13:59.222Z,19.34
2023-05-24T17:16:28.727Z,19.35
2023-05-24T17:18:57.466Z,19.35
2023-05-24T17:21:28.063Z,19.40
2023-05-24T17:23:57.845Z,19.45
2023-05-24T17:26:27.216Z,19.44
2023-05-24T17:29:01.159Z,19.47
2023-05-24T17:31:30.159Z,19.49
2023-05-24T17:33:59.458Z,19.52
2023-05-24T17:36:29.022Z,19.53
2023-05-24T17:38:58.392Z,19.50
2023-05-24T17:41:27.080Z,19.50
2023-05-24T17:43:57.594Z,19.50
2023-05-24T17:46:27.478Z,19.49
2023-05-24T17:48:56.325Z,19.47
2023-05-24T17:51:25.697Z,19.47
2023-05-24T17:53:54.811Z,19.49
2023-05-24T17:56:23.541Z,19.50
2023-05-24T17:58:52.566Z,19.52
2023-05-24T18:01:22.747Z,19.52
2023-05-24T18:03:51.692Z,19.50
2023-05-24T18:06:20.959Z,19.48
2023-05-24T18:08:49.668Z,19.47
2023-05-24T18:11:18.417Z,19.48
2023-05-24T18:13:47.287Z,19.51
2023-05-24T18:16:16.126Z,19.50
2023-05-24T18:18:46.344Z,19.57
2023-05-24T18:21:15.178Z,19.59
2023-05-24T18:23:43.939Z,19.56
2023-05-24T18:26:13.434Z,19.54
2023-05-24T18:28:42.410Z,19.56
2023-05-24T18:31:11.660Z,19.56
2023-05-24T18:33:41.251Z,19.54
2023-05-24T18:36:12.931Z,19.49
2023-05-24T18:38:41.740Z,19.41
2023-05-24T18:41:12.319Z,19.40
2023-05-24T18:43:43.186Z,19.38
2023-05-24T18:46:14.018Z,19.34
2023-05-24T18:48:43.119Z,19.30
2023-05-24T18:51:13.586Z,19.27
2023-05-24T18:53:42.736Z,19.26
2023-05-24T18:56:11.550Z,19.23
2023-05-24T18:58:41.442Z,19.20
2023-05-24T19:01:10.806Z,19.20
2023-05-24T19:03:41.928Z,19.14
2023-05-24T19:06:10.667Z,19.13
2023-05-24T19:08:40.728Z,19.12
2023-05-24T19:11:11.455Z,19.11
2023-05-24T19:13:40.934Z,19.12
2023-05-24T19:16:09.661Z,19.10
2023-05-24T19:18:38.318Z,19.24
2023-05-24T19:21:07.004Z,19.23
2023-05-24T19:23:35.792Z,19.23
2023-05-24T19:26:06.004Z,19.23
2023-05-24T19:28:38.152Z,19.24
2023-05-24T19:31:07.621Z,19.23
2023-05-24T19:33:42.707Z,19.26
2023-05-24T19:36:17.616Z,19.26
2023-05-24T19:38:46.455Z,19.24
2023-05-24T19:41:16.585Z,19.26
2023-05-24T19:43:45.281Z,19.30
2023-05-24T19:46:15.014Z,19.32
2023-05-24T19:48:44.112Z,19.26
2023-05-24T19:51:13.463Z,19.20
2023-05-24T19:53:42.161Z,19.18
2023-05-24T19:56:11.426Z,19.15
2023-05-24T19:58:42.077Z,19.14
2023-05-24T20:01:10.878Z,19.12
2023-05-24T20:03:39.784Z,19.09
2023-05-24T20:06:08.651Z,19.08
2023-05-24T20:08:37.312Z,19.06
2023-05-24T20:11:06.025Z,19.05
2023-05-24T20:13:34.694Z,19.03
2023-05-24T20:16:04.856Z,19.02
2023-05-24T20:18:35.203Z,19.03
2023-05-24T20:21:03.976Z,18.99
2023-05-24T20:23:32.852Z,18.99
2023-05-24T20:26:01.967Z,18.97
2023-05-24T20:28:31.979Z,18.94
2023-05-24T20:31:01.266Z,18.93
2023-05-24T20:33:31.528Z,18.94
2023-05-24T20:36:00.213Z,18.93
2023-05-24T20:38:28.874Z,18.90
2023-05-24T20:40:57.494Z,18.90
2023-05-24T20:43:26.323Z,18.89
2023-05-24T20:45:55.403Z,18.87
2023-05-24T20:48:25.640Z,18.87
2023-05-24T20:50:55.807Z,18.86
2023-05-24T20:53:24.633Z,18.85
2023-05-24T20:55:53.486Z,18.83
2023-05-24T20:58:22.200Z,18.79
2023-05-24T21:00:51.519Z,18.78
2023-05-24T21:03:20.353Z,18.78
2023-05-24T21:05:49.096Z,18.81
2023-05-24T21:08:19.216Z,18.79
2023-05-24T21:10:47.932Z,18.79
2023-05-24T21:13:16.539Z,18.77
2023-05-24T21:15:45.746Z,18.74
2023-05-24T21:18:14.566Z,18.76
2023-05-24T21:20:43.353Z,18.76
2023-05-24T21:23:12.048Z,18.72
2023-05-24T21:25:42.194Z,18.74
2023-05-24T21:28:11.429Z,18.72
2023-05-24T21:30:40.185Z,18.71
2023-05-24T21:33:09.497Z,18.72
2023-05-24T21:35:38.621Z,18.74
2023-05-24T21:38:07.328Z,18.72
2023-05-24T21:40:36.011Z,18.67
2023-05-24T21:43:06.057Z,18.68
2023-05-24T21:45:34.710Z,18.66
2023-05-24T21:48:03.442Z,18.65
2023-05-24T21:50:32.140Z,18.66
2023-05-24T21:53:00.817Z,18.66
2023-05-24T21:55:30.179Z,18.66
2023-05-24T21:58:00.338Z,18.65
2023-05-24T22:00:30.655Z,18.64
2023-05-24T22:02:59.468Z,18.61
2023-05-24T22:05:28.271Z,18.61
2023-05-24T22:07:57.054Z,18.64
2023-05-24T22:10:25.882Z,18.61
2023-05-24T22:12:54.546Z,18.60
2023-05-24T22:15:23.180Z,18.61
2023-05-24T22:17:53.260Z,18.61
2023-05-24T22:20:22.544Z,18.64
2023-05-24T22:22:53.789Z,18.67
2023-05-24T22:25:22.626Z,18.63
2023-05-24T22:27:52.891Z,18.61
2023-05-24T22:30:21.662Z,18.58
2023-05-24T22:32:51.100Z,18.57
2023-05-24T22:35:21.182Z,18.58
2023-05-24T22:37:50.065Z,18.54
2023-05-24T22:40:19.593Z,18.54
2023-05-24T22:42:48.328Z,18.52
2023-05-24T22:45:18.628Z,18.53
2023-05-24T22:47:49.762Z,18.52
2023-05-24T22:50:18.517Z,18.51
2023-05-24T22:52:48.651Z,18.52
2023-05-24T22:55:17.581Z,18.51
2023-05-24T22:57:46.390Z,18.49
2023-05-24T23:00:15.820Z,18.46
2023-05-24T23:02:44.533Z,18.50
2023-05-24T23:05:13.224Z,18.46
2023-05-24T23:07:42.181Z,18.49
2023-05-24T23:10:12.464Z,18.47
2023-05-24T23:12:42.302Z,18.48
2023-05-24T23:15:11.736Z,18.47
2023-05-24T23:17:40.511Z,18.44
2023-05-24T23:20:14.539Z,18.45
2023-05-24T23:22:43.740Z,18.44
2023-05-24T23:25:14.265Z,18.42
2023-05-24T23:27:43.497Z,18.42
2023-05-24T23:30:13.329Z,18.41
2023-05-24T23:32:42.093Z,18.40
2023-05-24T23:35:11.364Z,18.38
2023-05-24T23:37:40.387Z,18.38
2023-05-24T23:40:10.456Z,18.39
2023-05-24T23:42:40.596Z,18.36
2023-05-24T23:45:09.832Z,18.36
2023-05-24T23:47:38.663Z,18.37
2023-05-24T23:50:08.754Z,18.36
2023-05-24T23:52:37.572Z,18.36
2023-05-24T23:55:07.907Z,18.34
2023-05-24T23:57:38.396Z,18.38
